createdAt,value
2023-04-17T00:01:16.659Z,9.63
2023-04-17T00:06:20.423Z,9.48
2023-04-17T00:11:23.121Z,8.55
2023-04-17T00:16:27.402Z,9.65
2023-04-17T00:21:33.074Z,11.60
2023-04-17T00:26:35.965Z,11.30
2023-04-17T00:31:39.291Z,12.80
2023-04-17T00:36:41.753Z,12.88
2023-04-17T00:41:44.589Z,14.38
2023-04-17T00:46:49.034Z,10.82
2023-04-17T00:51:53.146Z,11.65
2023-04-17T00:56:57.884Z,12.27
2023-04-17T01:02:02.362Z,10.32
2023-04-17T01:07:05.621Z,10.00
2023-04-17T01:12:24.643Z,10.13
2023-04-17T01:17:27.985Z,9.60
2023-04-17T01:22:30.511Z,8.48
2023-04-17T01:27:35.326Z,9.40
2023-04-17T01:32:38.320Z,10.25
2023-04-17T01:37:41.433Z,10.00
2023-04-17T01:42:44.263Z,9.68
2023-04-17T01:47:47.557Z,9.00
2023-04-17T01:52:50.461Z,10.43
2023-04-17T01:57:53.701Z,10.07
2023-04-17T02:02:56.983Z,9.30
2023-04-17T02:07:59.359Z,10.27
2023-04-17T02:13:02.122Z,10.95
2023-04-17T02:18:09.532Z,11.30
2023-04-17T02:23:12.489Z,11.10
2023-04-17T02:28:15.858Z,11.35
2023-04-17T02:33:18.547Z,11.77
2023-04-17T02:38:22.794Z,11.38
2023-04-17T02:43:25.447Z,12.40
2023-04-17T02:48:27.722Z,12.73
2023-04-17T02:53:30.632Z,12.48
2023-04-17T02:58:32.993Z,13.32
2023-04-17T03:03:35.849Z,13.82
2023-04-17T03:08:45.608Z,15.38
2023-04-17T03:13:48.129Z,15.05
2023-04-17T03:18:50.637Z,12.68
2023-04-17T03:23:53.070Z,9.98
2023-04-17T03:28:57.630Z,9.48
2023-04-17T03:34:01.037Z,8.30
2023-04-17T03:39:03.909Z,8.45
2023-04-17T03:44:09.601Z,10.55
2023-04-17T03:49:12.645Z,12.93
2023-04-17T03:54:16.390Z,11.93
2023-04-17T03:59:21.181Z,9.45
2023-04-17T04:04:26.142Z,7.10
2023-04-17T04:09:38.410Z,9.15
2023-04-17T04:14:43.167Z,7.78
2023-04-17T04:19:48.071Z,10.10
2023-04-17T04:24:54.478Z,7.95
2023-04-17T04:30:06.178Z,5.45
2023-04-17T04:35:14.376Z,4.78
2023-04-17T04:40:18.257Z,4.88
2023-04-17T04:45:21.502Z,5.78
2023-04-17T04:50:24.742Z,5.32
2023-04-17T04:55:30.886Z,4.13
2023-04-17T05:00:34.260Z,3.33
2023-04-17T05:05:37.947Z,6.18
2023-04-17T05:10:41.069Z,4.60
2023-04-17T05:15:44.299Z,3.70
2023-04-17T05:20:48.188Z,7.38
2023-04-17T05:25:51.499Z,6.55
2023-04-17T05:30:57.805Z,3.83
2023-04-17T05:36:09.877Z,3.38
2023-04-17T05:41:18.078Z,3.65
2023-04-17T05:46:22.114Z,3.90
2023-04-17T05:51:25.147Z,2.70
2023-04-17T05:56:28.595Z,4.28
2023-04-17T06:01:32.798Z,3.70
2023-04-17T06:06:35.924Z,2.65
2023-04-17T06:11:38.455Z,2.10
2023-04-17T06:16:42.715Z,2.08
2023-04-17T06:31:51.616Z,6.38
2023-04-17T06:36:56.134Z,3.45
2023-04-17T06:41:59.561Z,3.65
2023-04-17T06:47:04.964Z,3.22
2023-04-17T06:52:07.316Z,3.72
2023-04-17T06:57:12.508Z,3.70
2023-04-17T07:02:15.186Z,2.15
2023-04-17T07:07:18.379Z,2.78
2023-04-17T07:12:22.917Z,1.90
2023-04-17T07:17:27.425Z,2.60
2023-04-17T07:22:31.215Z,2.50
2023-04-17T07:27:35.019Z,2.92
2023-04-17T07:32:38.431Z,2.28
2023-04-17T07:37:40.751Z,2.70
2023-04-17T07:42:43.576Z,1.60
2023-04-17T07:47:47.295Z,1.85
2023-04-17T07:52:50.669Z,1.40
2023-04-17T07:57:53.508Z,1.70
2023-04-17T08:02:56.226Z,1.70
2023-04-17T08:08:02.667Z,1.70
2023-04-17T08:13:04.974Z,1.50
2023-04-17T08:18:10.166Z,2.00
2023-04-17T08:23:14.366Z,1.73
2023-04-17T08:28:17.063Z,1.52
2023-04-17T08:33:20.018Z,2.20
2023-04-17T08:38:23.007Z,4.30
2023-04-17T08:43:29.556Z,4.28
2023-04-17T08:48:32.114Z,1.80
2023-04-17T08:53:35.609Z,1.50
2023-04-17T08:58:39.948Z,1.50
2023-04-17T09:03:45.589Z,1.73
2023-04-17T09:08:58.869Z,1.50
2023-04-17T09:14:03.123Z,1.40
2023-04-17T09:19:10.312Z,2.72
2023-04-17T09:24:13.224Z,1.38
2023-04-17T09:29:15.966Z,1.20
2023-04-17T09:34:21.666Z,1.08
2023-04-17T09:39:25.770Z,1.50
2023-04-17T09:44:30.396Z,1.50
2023-04-17T09:49:49.879Z,1.45
2023-04-17T09:54:54.595Z,1.33
2023-04-17T10:00:02.103Z,1.48
2023-04-17T10:05:11.959Z,1.40
2023-04-17T10:10:31.401Z,1.55
2023-04-17T10:15:35.047Z,1.20
2023-04-17T10:20:39.057Z,2.38
2023-04-17T10:25:43.233Z,1.52
2023-04-17T10:30:55.701Z,1.60
2023-04-17T10:35:59.437Z,1.60
2023-04-17T10:41:04.470Z,1.45
2023-04-17T10:46:10.350Z,2.42
2023-04-17T10:51:22.606Z,1.42
2023-04-17T10:56:51.085Z,1.33
2023-04-17T11:01:58.182Z,1.30
2023-04-17T11:07:02.022Z,1.30
2023-04-17T11:12:06.521Z,1.55
2023-04-17T11:17:10.349Z,1.63
2023-04-17T11:22:13.811Z,1.67
2023-04-17T11:27:16.184Z,1.25
2023-04-17T11:32:19.047Z,1.35
2023-04-17T11:37:21.904Z,1.50
2023-04-17T11:42:28.130Z,1.38
2023-04-17T11:47:31.568Z,1.70
2023-04-17T11:52:37.458Z,1.60
2023-04-17T11:57:46.663Z,2.17
2023-04-17T12:02:50.905Z,1.60
2023-04-17T12:08:02.130Z,1.50
2023-04-17T12:13:05.324Z,1.58
2023-04-17T12:18:11.277Z,1.45
2023-04-17T12:23:14.271Z,1.73
2023-04-17T12:28:18.130Z,2.20
2023-04-17T12:33:21.119Z,1.52
2023-04-17T12:38:24.030Z,1.92
2023-04-17T12:43:26.996Z,3.20
2023-04-17T12:48:31.378Z,2.10
2023-04-17T12:53:35.168Z,2.13
2023-04-17T12:58:39.980Z,1.70
2023-04-17T13:08:46.546Z,1.48
2023-04-17T13:13:48.769Z,1.52
2023-04-17T13:18:51.596Z,1.83
2023-04-17T13:23:53.883Z,1.88
2023-04-17T13:28:57.465Z,1.98
2023-04-17T13:33:59.713Z,1.70
2023-04-17T13:39:02.278Z,1.30
2023-04-17T13:44:04.895Z,1.90
2023-04-17T13:49:08.128Z,1.83
2023-04-17T13:54:10.985Z,2.20
2023-04-17T13:59:15.136Z,2.67
2023-04-17T14:04:18.398Z,1.30
2023-04-17T14:09:21.741Z,1.48
2023-04-17T14:14:24.138Z,2.53
2023-04-17T14:19:26.798Z,1.85
2023-04-17T14:24:29.628Z,1.85
2023-04-17T14:29:32.971Z,2.13
2023-04-17T14:34:35.790Z,2.03
2023-04-17T14:39:38.735Z,1.88
2023-04-17T14:44:43.716Z,2.28
2023-04-17T14:49:46.116Z,2.22
2023-04-17T14:54:48.919Z,2.20
2023-04-17T14:59:52.143Z,2.58
2023-04-17T15:04:55.238Z,2.38
2023-04-17T15:09:57.573Z,1.85
2023-04-17T15:14:59.982Z,2.60
2023-04-17T15:20:02.431Z,2.05
2023-04-17T15:25:06.044Z,2.30
2023-04-17T15:30:09.689Z,2.20
2023-04-17T15:35:12.141Z,2.40
2023-04-17T15:40:14.494Z,2.05
2023-04-17T15:45:16.887Z,2.53
2023-04-17T15:50:20.512Z,2.47
2023-04-17T15:55:23.060Z,3.15
2023-04-17T16:00:25.955Z,2.83
2023-04-17T16:05:30.450Z,3.10
2023-04-17T16:10:34.967Z,4.60
2023-04-17T16:15:37.221Z,7.55
2023-04-17T16:20:39.844Z,7.65
2023-04-17T16:25:42.401Z,5.18
2023-04-17T16:30:44.665Z,4.88
2023-04-17T16:35:47.523Z,4.85
2023-04-17T16:40:50.225Z,5.60
2023-04-17T16:45:52.665Z,7.13
2023-04-17T16:50:57.087Z,6.70
2023-04-17T16:55:59.568Z,9.40
2023-04-17T17:01:01.817Z,9.18
2023-04-17T17:06:07.267Z,18.88
2023-04-17T17:16:12.602Z,9.98
2023-04-17T17:21:15.755Z,8.25
2023-04-17T17:26:18.608Z,6.22
2023-04-17T17:31:21.870Z,6.25
2023-04-17T17:36:24.501Z,8.68
2023-04-17T17:41:26.803Z,9.90
2023-04-17T17:46:30.849Z,10.38
2023-04-17T17:51:33.262Z,6.43
2023-04-17T17:56:35.537Z,7.13
2023-04-17T18:01:40.555Z,9.95
2023-04-17T18:06:42.998Z,10.98
2023-04-17T18:11:45.740Z,15.95
2023-04-17T18:16:48.843Z,16.75
2023-04-17T18:21:51.828Z,17.45
2023-04-17T18:26:54.325Z,13.70
2023-04-17T18:31:56.629Z,16.17
2023-04-17T18:37:00.626Z,14.32
2023-04-17T18:42:03.880Z,19.13
2023-04-17T18:47:06.784Z,17.30
2023-04-17T18:52:09.302Z,12.75
2023-04-17T18:57:11.516Z,10.02
2023-04-17T19:02:13.940Z,5.35
2023-04-17T19:07:16.137Z,2.17
2023-04-17T19:12:18.441Z,1.50
2023-04-17T19:17:20.830Z,1.92
2023-04-17T19:22:23.547Z,1.70
2023-04-17T19:27:27.014Z,1.48
2023-04-17T19:32:31.544Z,1.88
2023-04-17T19:37:34.860Z,1.70
2023-04-17T19:42:37.499Z,2.22
2023-04-17T19:47:40.681Z,2.88
2023-04-17T19:52:43.981Z,2.15
2023-04-17T19:57:48.453Z,3.08
2023-04-17T20:02:51.283Z,3.63
2023-04-17T20:07:54.549Z,4.68
2023-04-17T20:12:57.350Z,6.90
2023-04-17T20:18:00.888Z,7.15
2023-04-17T20:23:04.149Z,6.22
2023-04-17T20:28:06.562Z,4.82
2023-04-17T20:33:09.621Z,3.28
2023-04-17T20:38:12.450Z,2.58
2023-04-17T20:43:15.233Z,2.28
2023-04-17T20:48:17.607Z,1.65
2023-04-17T20:53:20.552Z,1.83
2023-04-17T20:58:24.924Z,1.65
2023-04-17T21:03:29.750Z,1.55
2023-04-17T21:08:33.269Z,2.05
2023-04-17T21:13:35.556Z,2.13
2023-04-17T21:18:38.985Z,1.60
2023-04-17T21:23:41.263Z,1.42
2023-04-17T21:28:44.098Z,1.20
2023-04-17T21:33:46.887Z,1.77
2023-04-17T21:38:49.638Z,2.00
2023-04-17T21:43:54.769Z,1.50
2023-04-17T21:48:57.184Z,1.00
2023-04-17T21:54:01.071Z,0.88
2023-04-17T21:59:04.430Z,1.00
2023-04-17T22:04:06.810Z,0.88
2023-04-17T22:09:10.104Z,0.63
2023-04-17T22:14:13.050Z,0.70
2023-04-17T22:19:16.254Z,0.73
2023-04-17T22:24:18.978Z,0.80
2023-04-17T22:29:21.261Z,1.00
2023-04-17T22:34:24.855Z,0.80
2023-04-17T22:39:27.575Z,1.55
2023-04-17T22:44:30.534Z,1.20
2023-04-17T22:49:38.724Z,1.33
2023-04-17T22:54:43.035Z,1.10
2023-04-17T22:59:46.498Z,1.08
2023-04-17T23:04:49.870Z,1.23
2023-04-17T23:09:52.567Z,1.50
2023-04-17T23:14:54.863Z,1.38
2023-04-17T23:19:57.177Z,1.27
2023-04-17T23:25:00.535Z,1.23
2023-04-17T23:30:04.338Z,1.73
2023-04-17T23:35:07.668Z,1.83
2023-04-17T23:40:10.291Z,1.90
2023-04-17T23:45:12.790Z,1.70
2023-04-17T23:50:15.319Z,1.63
2023-04-17T23:55:17.550Z,1.23
